Time;durP1;ratioP1;P1;durP2;ratioP2;P2;SDS_P1;SDS_P2;PMS_P1;PMS_P2;Temp;Humidity;BMP_temperature;BMP_pressure;BME280_temperature;BME280_humidity;BME280_pressure;Samples;Min_cycle;Max_cycle;Signal;HPM_P1;HPM_P2
2023/03/25 00:01:07;;;;;;;7.80;5.30;;;18.60;64.50;;;;;;5053626;28;20166;-24
2023/03/25 00:03:40;;;;;;;7.78;5.60;;;18.60;64.50;;;;;;5053714;28;20039;-24
2023/03/25 00:06:08;;;;;;;8.65;5.65;;;18.60;64.50;;;;;;5053646;28;20036;-24
2023/03/25 00:08:35;;;;;;;8.10;5.38;;;18.60;64.40;;;;;;5053178;28;20045;-24
2023/03/25 00:11:03;;;;;;;8.27;5.63;;;18.60;64.40;;;;;;5053364;28;20032;-24
2023/03/25 00:13:32;;;;;;;7.82;5.43;;;18.60;64.50;;;;;;5053814;28;20029;-24
2023/03/25 00:15:59;;;;;;;9.57;5.38;;;18.60;64.40;;;;;;5053169;28;20044;-24
2023/03/25 00:18:32;;;;;;;6.75;5.40;;;18.60;64.40;;;;;;5053705;28;20056;-24
2023/03/25 00:21:03;;;;;;;8.18;5.78;;;18.60;64.40;;;;;;5053459;28;20013;-24
2023/03/25 00:23:30;;;;;;;8.25;5.45;;;18.60;64.40;;;;;;5053024;28;20073;-24
2023/03/25 00:26:00;;;;;;;6.97;4.90;;;18.60;64.40;;;;;;5053063;28;20112;-24
2023/03/25 00:28:29;;;;;;;8.68;5.55;;;18.60;64.40;;;;;;5053184;28;20021;-23
2023/03/25 00:30:59;;;;;;;7.05;5.10;;;18.60;64.40;;;;;;5053097;28;20040;-25
2023/03/25 00:33:26;;;;;;;7.32;5.60;;;18.60;64.40;;;;;;5053361;28;20021;-23
2023/03/25 00:35:58;;;;;;;8.18;5.35;;;18.60;64.40;;;;;;5052965;28;20534;-24
2023/03/25 00:38:32;;;;;;;7.03;5.20;;;18.50;64.40;;;;;;5052925;28;20028;-23
2023/03/25 00:41:10;;;;;;;7.72;5.10;;;18.50;64.40;;;;;;5053286;28;20090;-24
2023/03/25 00:43:35;;;;;;;6.93;5.00;;;18.50;64.40;;;;;;5052883;28;20535;-22
2023/03/25 00:46:01;;;;;;;8.18;5.68;;;18.50;64.40;;;;;;5052965;28;20024;-23
2023/03/25 00:48:28;;;;;;;7.70;5.65;;;18.50;64.40;;;;;;5053244;28;20032;-23
2023/03/25 00:50:54;;;;;;;8.23;5.47;;;18.50;64.40;;;;;;5052877;28;20477;-23
2023/03/25 00:53:20;;;;;;;7.75;5.57;;;18.50;64.30;;;;;;5053020;28;20078;-23
2023/03/25 00:55:45;;;;;;;8.07;5.07;;;18.50;64.30;;;;;;5052792;28;20037;-22
2023/03/25 00:58:11;;;;;;;10.07;6.30;;;18.50;64.30;;;;;;5053540;28;20021;-23
2023/03/25 01:00:37;;;;;;;8.38;5.78;;;18.50;64.30;;;;;;5051576;28;20048;-23
2023/03/25 01:03:03;;;;;;;7.70;5.65;;;18.40;64.30;;;;;;5052692;28;20029;-23
2023/03/25 01:05:29;;;;;;;8.20;5.85;;;18.50;64.30;;;;;;5053060;28;20040;-24
2023/03/25 01:07:58;;;;;;;7.93;5.70;;;18.40;64.30;;;;;;5052242;28;20589;-24
2023/03/25 01:10:24;;;;;;;7.63;5.18;;;18.50;64.30;;;;;;5052746;28;20021;-23
2023/03/25 01:12:50;;;;;;;9.23;5.85;;;18.50;64.40;;;;;;5053088;28;20028;-23
2023/03/25 01:15:16;;;;;;;8.88;5.72;;;18.50;64.40;;;;;;5055771;28;20512;-23
2023/03/25 01:17:41;;;;;;;8.50;5.82;;;18.50;64.40;;;;;;5056634;28;20041;-23
2023/03/25 01:20:08;;;;;;;8.88;6.25;;;18.40;64.40;;;;;;5056856;28;20075;-24
2023/03/25 01:22:35;;;;;;;7.68;5.55;;;18.40;64.30;;;;;;5056858;28;20104;-23
2023/03/25 01:25:00;;;;;;;7.55;5.25;;;18.40;64.40;;;;;;5056590;28;20033;-23
2023/03/25 01:27:26;;;;;;;7.07;5.10;;;18.40;64.40;;;;;;5056985;28;20040;-24
2023/03/25 01:29:53;;;;;;;7.20;5.40;;;18.40;64.50;;;;;;5056459;28;20392;-24
2023/03/25 01:32:19;;;;;;;8.57;5.60;;;18.40;64.50;;;;;;5056714;28;20062;-24
2023/03/25 01:34:48;;;;;;;7.13;5.43;;;18.40;64.50;;;;;;5056607;28;20047;-22
2023/03/25 01:37:14;;;;;;;7.25;5.50;;;18.40;64.50;;;;;;5056546;28;20527;-23
2023/03/25 01:39:40;;;;;;;7.97;5.25;;;18.40;64.50;;;;;;5056107;28;20037;-23
2023/03/25 01:42:06;;;;;;;7.20;5.15;;;18.40;64.50;;;;;;5056305;28;20021;-22
2023/03/25 01:44:31;;;;;;;7.18;5.20;;;18.40;64.50;;;;;;5056098;28;20029;-24
2023/03/25 01:47:02;;;;;;;6.15;4.88;;;18.40;64.60;;;;;;5054866;28;20078;-24
2023/03/25 01:49:37;;;;;;;7.43;5.25;;;18.40;64.50;;;;;;5056481;28;20026;-24
2023/03/25 01:52:24;;;;;;;7.60;5.60;;;18.40;64.60;;;;;;5056176;28;20028;-24
2023/03/25 01:54:52;;;;;;;7.80;5.85;;;18.40;64.60;;;;;;5054693;28;20093;-22
2023/03/25 01:57:20;;;;;;;9.68;6.05;;;18.40;64.50;;;;;;5055989;28;20055;-23
2023/03/25 01:59:48;;;;;;;9.45;6.00;;;18.40;64.50;;;;;;5054436;28;20032;-23
2023/03/25 02:02:17;;;;;;;10.90;7.05;;;18.40;64.50;;;;;;5056092;28;20053;-23
2023/03/25 02:05:06;;;;;;;9.02;6.10;;;18.40;64.50;;;;;;5055993;28;20124;-23
2023/03/25 02:07:35;;;;;;;7.20;5.28;;;18.40;64.50;;;;;;5055634;28;20500;-24
2023/03/25 02:10:11;;;;;;;7.90;5.38;;;18.40;64.60;;;;;;5055698;28;20029;-24
2023/03/25 02:12:37;;;;;;;7.75;5.68;;;18.30;64.60;;;;;;5055698;28;20392;-24
2023/03/25 02:15:06;;;;;;;8.43;6.03;;;18.40;64.60;;;;;;5055658;28;20032;-25
2023/03/25 02:17:56;;;;;;;8.27;5.53;;;18.40;64.60;;;;;;5055532;28;20021;-24
2023/03/25 02:20:43;;;;;;;8.15;6.18;;;18.30;64.60;;;;;;5055486;28;20129;-22
2023/03/25 02:23:40;;;;;;;7.97;5.53;;;18.30;64.60;;;;;;5055691;28;20040;-23
2023/03/25 02:26:25;;;;;;;8.48;5.93;;;18.30;64.60;;;;;;5054096;28;20039;-23
2023/03/25 02:29:03;;;;;;;9.18;6.22;;;18.30;64.50;;;;;;5055543;28;20033;-23
2023/03/25 02:31:48;;;;;;;8.93;6.15;;;18.30;64.50;;;;;;5055601;28;20102;-24
2023/03/25 02:34:36;;;;;;;8.13;5.65;;;18.30;64.60;;;;;;5055295;28;20033;-22
2023/03/25 02:37:25;;;;;;;8.75;5.63;;;18.30;64.60;;;;;;5055481;28;20117;-23
2023/03/25 02:40:13;;;;;;;8.25;5.63;;;18.30;64.60;;;;;;5055179;28;20084;-24
2023/03/25 02:42:48;;;;;;;7.30;5.22;;;18.20;64.60;;;;;;5055457;28;20104;-23
2023/03/25 02:45:45;;;;;;;8.70;5.57;;;18.30;64.70;;;;;;5055109;28;20477;-24
2023/03/25 02:48:18;;;;;;;8.52;5.70;;;18.30;64.70;;;;;;5054349;28;20037;-23
2023/03/25 02:50:54;;;;;;;9.35;5.68;;;18.20;64.70;;;;;;5054950;28;20370;-23
2023/03/25 02:53:27;;;;;;;8.57;5.97;;;18.30;64.70;;;;;;5055472;28;20033;-23
2023/03/25 02:55:58;;;;;;;10.10;6.10;;;18.20;64.70;;;;;;5054686;28;20029;-24
2023/03/25 02:58:26;;;;;;;7.90;5.47;;;18.20;64.70;;;;;;5055131;28;20033;-24
2023/03/25 03:00:57;;;;;;;8.52;5.88;;;18.20;64.80;;;;;;5055481;28;20049;-24
2023/03/25 03:03:27;;;;;;;7.95;5.60;;;18.20;64.80;;;;;;5054973;28;20059;-24
2023/03/25 03:05:59;;;;;;;8.20;6.00;;;18.20;64.80;;;;;;5054388;28;20021;-25
2023/03/25 03:08:45;;;;;;;8.98;5.95;;;18.20;64.80;;;;;;5054320;28;20059;-23
2023/03/25 03:11:29;;;;;;;7.28;5.20;;;18.20;64.80;;;;;;5054927;28;20102;-22
2023/03/25 03:14:22;;;;;;;9.68;6.20;;;18.20;64.80;;;;;;5054363;28;20032;-23
2023/03/25 03:17:09;;;;;;;8.77;6.30;;;18.20;64.80;;;;;;5054829;28;20025;-23
2023/03/25 03:19:40;;;;;;;8.88;5.60;;;18.20;64.80;;;;;;5054414;28;20491;-24
2023/03/25 03:22:33;;;;;;;9.32;6.75;;;18.20;64.80;;;;;;5054494;28;20415;-24
2023/03/25 03:25:18;;;;;;;8.75;5.82;;;18.20;64.70;;;;;;5054093;28;20055;-24
2023/03/25 03:27:56;;;;;;;9.57;6.10;;;18.20;64.80;;;;;;5054045;28;20037;-24
2023/03/25 03:30:31;;;;;;;8.60;5.80;;;18.10;64.80;;;;;;5054179;28;20029;-24
2023/03/25 03:33:42;;;;;;;8.48;6.07;;;18.20;64.80;;;;;;5054589;28;20021;-24
2023/03/25 03:36:12;;;;;;;8.52;6.20;;;18.20;64.80;;;;;;5012341;28;20093;-23
2023/03/25 03:38:53;;;;;;;8.15;5.75;;;18.10;64.70;;;;;;5011897;28;20165;-23
2023/03/25 03:41:25;;;;;;;8.68;5.90;;;18.10;64.70;;;;;;5012385;28;20184;-23
2023/03/25 03:44:02;;;;;;;9.60;6.18;;;18.10;64.70;;;;;;5012041;28;20061;-24
2023/03/25 03:46:42;;;;;;;8.90;5.93;;;18.10;64.70;;;;;;5012169;28;20033;-24
2023/03/25 03:49:15;;;;;;;10.48;5.90;;;18.10;64.80;;;;;;5012201;28;20030;-24
2023/03/25 03:51:59;;;;;;;10.40;6.40;;;18.10;64.80;;;;;;5012315;28;20026;-24
2023/03/25 03:54:33;;;;;;;8.55;5.45;;;18.10;64.80;;;;;;5012104;28;20073;-24
2023/03/25 03:57:07;;;;;;;8.60;5.55;;;18.10;64.80;;;;;;5012058;28;20130;-25
2023/03/25 03:59:45;;;;;;;9.60;5.93;;;18.10;64.80;;;;;;5012168;28;20041;-23
2023/03/25 04:02:27;;;;;;;8.98;6.38;;;18.10;64.90;;;;;;5011899;28;20478;-23
2023/03/25 04:04:53;;;;;;;9.30;5.70;;;18.10;64.90;;;;;;5011794;28;20544;-24
2023/03/25 04:07:27;;;;;;;8.77;5.95;;;18.00;64.90;;;;;;5042120;28;20056;-23
2023/03/25 04:09:55;;;;;;;9.55;5.63;;;18.00;64.80;;;;;;5051959;28;20493;-24
2023/03/25 04:12:31;;;;;;;9.15;6.30;;;18.00;64.80;;;;;;5053453;28;20040;-24
2023/03/25 04:15:01;;;;;;;8.68;5.65;;;18.00;64.90;;;;;;5053671;28;20029;-24
2023/03/25 04:17:31;;;;;;;9.70;6.13;;;18.00;64.90;;;;;;5053417;28;20052;-25
2023/03/25 04:20:07;;;;;;;9.43;6.15;;;18.00;64.90;;;;;;5053443;28;20037;-24
2023/03/25 04:22:37;;;;;;;8.10;5.45;;;18.00;64.90;;;;;;5053240;28;20032;-25
2023/03/25 04:25:05;;;;;;;8.68;6.15;;;18.00;64.90;;;;;;5053033;28;20602;-24
2023/03/25 04:27:31;;;;;;;8.75;6.20;;;18.00;64.90;;;;;;5053311;28;20020;-24
2023/03/25 04:30:00;;;;;;;8.35;6.10;;;18.00;64.90;;;;;;5052940;28;20442;-24
2023/03/25 04:32:27;;;;;;;10.73;6.03;;;18.00;64.90;;;;;;5053505;28;20029;-24
2023/03/25 04:34:56;;;;;;;8.93;6.50;;;18.00;64.90;;;;;;5053069;28;20104;-24
2023/03/25 04:37:24;;;;;;;8.57;5.70;;;18.00;64.90;;;;;;5053059;28;20025;-24
2023/03/25 04:39:52;;;;;;;8.60;5.82;;;18.00;64.90;;;;;;5052739;28;20048;-24
2023/03/25 04:42:18;;;;;;;9.00;6.00;;;18.00;64.90;;;;;;5053313;28;20053;-24
2023/03/25 04:44:44;;;;;;;10.02;5.85;;;18.00;64.90;;;;;;5052911;28;20045;-24
2023/03/25 04:47:15;;;;;;;7.97;5.95;;;18.00;65.00;;;;;;5052925;28;20025;-24
2023/03/25 04:49:43;;;;;;;10.73;6.32;;;18.00;65.00;;;;;;5052568;28;20036;-24
2023/03/25 04:52:10;;;;;;;10.32;6.55;;;17.90;64.90;;;;;;5052880;28;20055;-24
2023/03/25 04:54:39;;;;;;;8.57;6.20;;;18.00;64.80;;;;;;5051523;28;20032;-23
2023/03/25 04:57:07;;;;;;;8.27;5.65;;;17.90;64.80;;;;;;5053169;28;20036;-23
2023/03/25 04:59:34;;;;;;;9.75;6.05;;;17.90;64.90;;;;;;5052808;28;20468;-24
2023/03/25 05:02:01;;;;;;;8.55;5.88;;;17.90;64.90;;;;;;5052937;28;20033;-24
2023/03/25 05:04:28;;;;;;;9.68;5.88;;;17.90;64.90;;;;;;5052712;28;20037;-24
2023/03/25 05:06:55;;;;;;;9.18;6.13;;;17.90;64.90;;;;;;5052634;28;20068;-24
2023/03/25 05:09:21;;;;;;;9.02;6.25;;;17.90;64.80;;;;;;5052942;28;20032;-24
2023/03/25 05:11:49;;;;;;;10.35;5.78;;;17.90;64.80;;;;;;5052777;28;20022;-21
2023/03/25 05:14:17;;;;;;;7.80;5.50;;;17.90;64.90;;;;;;5053175;28;20033;-24
2023/03/25 05:16:45;;;;;;;9.20;5.90;;;17.90;64.90;;;;;;5052587;28;20056;-24
2023/03/25 05:19:12;;;;;;;7.90;5.50;;;17.90;64.90;;;;;;5052642;28;20025;-24
2023/03/25 05:21:39;;;;;;;8.13;5.53;;;17.90;64.90;;;;;;5052999;28;20035;-24
2023/03/25 05:24:12;;;;;;;8.90;5.82;;;17.90;64.90;;;;;;5052184;28;20033;-25
2023/03/25 05:26:40;;;;;;;8.27;5.30;;;17.90;64.90;;;;;;5052565;28;20036;-24
2023/03/25 05:29:14;;;;;;;8.27;5.40;;;17.90;65.00;;;;;;5052833;28;20028;-24
2023/03/25 05:31:41;;;;;;;9.73;5.65;;;17.90;65.00;;;;;;5052558;28;20021;-24
2023/03/25 05:34:08;;;;;;;9.50;6.20;;;17.90;65.00;;;;;;5052920;28;20029;-24
2023/03/25 05:36:34;;;;;;;10.35;6.22;;;17.90;65.00;;;;;;5052388;28;20392;-25
2023/03/25 05:39:00;;;;;;;10.10;6.30;;;17.90;65.00;;;;;;5051151;28;20025;-24
2023/03/25 05:41:37;;;;;;;9.63;6.43;;;17.90;64.80;;;;;;5052359;28;20029;-22
2023/03/25 05:44:08;;;;;;;8.75;6.00;;;17.90;64.80;;;;;;5052427;28;20449;-22
2023/03/25 05:46:34;;;;;;;8.45;5.45;;;17.90;64.70;;;;;;5052669;28;20511;-23
2023/03/25 05:49:03;;;;;;;8.32;5.90;;;17.90;64.70;;;;;;5052586;28;20045;-24
2023/03/25 05:51:36;;;;;;;7.93;5.50;;;17.90;64.70;;;;;;5052367;28;20027;-23
2023/03/25 05:54:07;;;;;;;9.30;5.85;;;17.90;64.70;;;;;;5052303;28;20471;-22
2023/03/25 05:56:36;;;;;;;8.02;5.78;;;17.90;64.70;;;;;;5052868;28;20021;-23
2023/03/25 05:59:02;;;;;;;8.18;5.85;;;18.00;64.60;;;;;;5052558;28;20021;-23
2023/03/25 06:01:36;;;;;;;8.82;5.50;;;18.00;64.50;;;;;;5055178;28;20029;-23
2023/03/25 06:04:02;;;;;;;8.25;5.70;;;18.00;64.40;;;;;;5055555;28;20037;-24
2023/03/25 06:06:30;;;;;;;9.43;5.88;;;18.10;64.40;;;;;;5055849;28;20028;-23
2023/03/25 06:08:57;;;;;;;12.27;8.00;;;18.10;64.40;;;;;;5055634;28;20049;-22
2023/03/25 06:11:23;;;;;;;9.75;6.25;;;18.20;64.20;;;;;;5055980;28;20025;-23
2023/03/25 06:13:49;;;;;;;9.00;5.78;;;18.20;64.00;;;;;;5055362;28;20028;-23
2023/03/25 06:16:20;;;;;;;7.80;5.68;;;18.20;64.00;;;;;;5055588;28;20025;-22
2023/03/25 06:18:54;;;;;;;10.73;6.72;;;18.30;64.00;;;;;;5055566;28;20032;-24
2023/03/25 06:21:22;;;;;;;8.48;6.15;;;18.30;64.00;;;;;;5055554;28;20478;-24
2023/03/25 06:23:48;;;;;;;9.88;5.70;;;18.30;63.90;;;;;;5055350;28;20025;-24
2023/03/25 06:26:16;;;;;;;8.93;6.10;;;18.30;63.80;;;;;;5055601;28;20384;-24
2023/03/25 06:28:43;;;;;;;10.98;7.10;;;18.40;63.80;;;;;;5055648;28;20033;-25
2023/03/25 06:31:13;;;;;;;9.18;6.38;;;18.40;63.80;;;;;;5055595;28;20031;-25
2023/03/25 06:33:40;;;;;;;9.23;6.40;;;18.40;63.70;;;;;;5055252;28;20469;-25
2023/03/25 06:36:06;;;;;;;9.60;6.10;;;18.40;63.60;;;;;;5055445;28;20025;-23
2023/03/25 06:38:33;;;;;;;8.85;6.22;;;18.40;63.60;;;;;;5055188;28;20357;-23
2023/03/25 06:40:58;;;;;;;8.05;5.45;;;18.40;63.60;;;;;;5055077;28;20429;-22
2023/03/25 06:43:24;;;;;;;7.63;5.35;;;18.50;63.50;;;;;;5055396;28;20116;-23
2023/03/25 06:45:50;;;;;;;9.77;6.80;;;18.50;63.40;;;;;;5055149;28;20040;-21
2023/03/25 06:48:16;;;;;;;8.32;6.22;;;18.50;63.40;;;;;;5055036;28;20071;-24
2023/03/25 06:50:42;;;;;;;11.20;6.00;;;18.50;63.40;;;;;;5055311;28;20029;-22
2023/03/25 06:53:08;;;;;;;10.88;7.25;;;18.50;63.40;;;;;;5053713;28;20400;-23
2023/03/25 06:55:34;;;;;;;8.13;5.60;;;18.50;63.40;;;;;;5054813;28;20017;-24
2023/03/25 06:58:00;;;;;;;10.80;6.30;;;18.60;63.40;;;;;;5054720;28;20025;-23
2023/03/25 07:00:27;;;;;;;7.93;5.53;;;18.70;63.30;;;;;;5054669;28;20111;-23
2023/03/25 07:02:53;;;;;;;7.45;5.32;;;18.80;63.20;;;;;;5054711;28;20041;-23
2023/03/25 07:05:19;;;;;;;8.85;6.07;;;18.90;63.00;;;;;;5054621;28;20032;-23
2023/03/25 07:07:45;;;;;;;10.05;6.65;;;19.00;62.80;;;;;;5053883;28;20420;-23
2023/03/25 07:10:12;;;;;;;8.65;6.10;;;19.20;62.60;;;;;;5054255;28;20067;-23
2023/03/25 07:12:39;;;;;;;10.80;7.03;;;19.30;62.30;;;;;;5053967;28;20029;-22
2023/03/25 07:15:05;;;;;;;9.40;7.00;;;19.40;62.10;;;;;;5054541;28;20092;-23
2023/03/25 07:17:31;;;;;;;8.48;5.85;;;19.60;61.70;;;;;;5054512;28;20504;-23
2023/03/25 07:19:57;;;;;;;10.88;7.50;;;19.80;61.40;;;;;;5054072;28;20029;-22
2023/03/25 07:22:23;;;;;;;9.38;6.75;;;19.90;61.00;;;;;;5053977;28;20028;-23
2023/03/25 07:24:51;;;;;;;10.40;6.72;;;20.20;60.60;;;;;;5053849;28;20098;-23
2023/03/25 07:27:17;;;;;;;11.85;7.68;;;20.40;60.20;;;;;;5054606;28;20033;-23
2023/03/25 07:29:42;;;;;;;11.30;7.28;;;20.50;59.80;;;;;;5054094;28;20091;-23
2023/03/25 07:32:08;;;;;;;10.35;6.75;;;20.70;59.40;;;;;;5054452;28;20484;-23
2023/03/25 07:34:34;;;;;;;10.38;7.07;;;20.90;59.00;;;;;;5054419;28;20029;-24
2023/03/25 07:37:00;;;;;;;10.32;7.20;;;20.90;58.80;;;;;;5054086;28;20053;-23
2023/03/25 07:39:25;;;;;;;10.50;7.35;;;20.90;58.70;;;;;;5053837;28;20029;-24
2023/03/25 07:41:51;;;;;;;12.20;7.70;;;20.90;58.70;;;;;;5053786;28;20024;-25
2023/03/25 07:44:20;;;;;;;11.80;7.60;;;20.80;58.70;;;;;;5054145;28;20029;-23
2023/03/25 07:46:47;;;;;;;10.55;7.65;;;20.70;58.80;;;;;;5054452;28;20028;-25
2023/03/25 07:49:15;;;;;;;12.88;8.60;;;20.70;59.00;;;;;;5053833;28;20021;-25
2023/03/25 07:51:41;;;;;;;11.25;8.13;;;20.50;59.20;;;;;;5053659;28;20544;-24
2023/03/25 07:54:07;;;;;;;14.60;8.40;;;20.50;59.40;;;;;;5052326;28;20025;-24
2023/03/25 07:56:33;;;;;;;11.98;8.32;;;20.40;59.60;;;;;;5054017;28;20025;-24
2023/03/25 07:58:59;;;;;;;13.20;8.50;;;20.30;59.70;;;;;;5053696;28;20029;-24
2023/03/25 08:01:24;;;;;;;12.05;7.93;;;20.20;59.90;;;;;;5053630;28;20040;-24
2023/03/25 08:03:51;;;;;;;12.10;8.00;;;20.20;60.10;;;;;;5053271;28;20041;-25
2023/03/25 08:06:17;;;;;;;11.20;7.80;;;20.10;60.20;;;;;;5053561;28;20025;-24
2023/03/25 08:08:42;;;;;;;11.15;7.50;;;20.00;60.40;;;;;;5053326;28;20049;-25
2023/03/25 08:11:09;;;;;;;15.07;7.75;;;20.00;60.50;;;;;;5053717;28;20382;-24
2023/03/25 08:13:35;;;;;;;13.65;7.80;;;19.90;60.60;;;;;;5053572;28;20095;-24
2023/03/25 08:16:01;;;;;;;12.00;7.90;;;19.90;60.70;;;;;;5053420;28;20419;-24
2023/03/25 08:18:27;;;;;;;12.50;8.20;;;19.90;60.80;;;;;;5053621;28;20416;-24
2023/03/25 08:20:54;;;;;;;11.95;8.27;;;19.90;60.90;;;;;;5053055;28;20017;-24
2023/03/25 08:23:21;;;;;;;13.52;8.77;;;19.90;61.00;;;;;;5052194;28;20112;-23
2023/03/25 08:25:49;;;;;;;13.55;8.80;;;19.80;61.00;;;;;;5052748;28;20523;-24
2023/03/25 08:28:20;;;;;;;15.13;9.57;;;19.80;61.00;;;;;;5051750;28;20021;-24
2023/03/25 08:30:48;;;;;;;14.27;9.65;;;19.80;61.00;;;;;;5053296;28;20032;-22
2023/03/25 08:33:17;;;;;;;13.00;8.73;;;19.80;61.00;;;;;;5051961;28;20029;-23
2023/03/25 08:35:43;;;;;;;15.43;9.32;;;19.80;60.90;;;;;;5053202;28;20029;-24
2023/03/25 08:38:09;;;;;;;16.05;9.82;;;19.80;61.00;;;;;;5053150;28;20021;-23
2023/03/25 08:40:35;;;;;;;14.05;9.25;;;19.70;61.00;;;;;;5053630;28;20025;-22
2023/03/25 08:43:06;;;;;;;13.63;9.07;;;19.70;61.00;;;;;;5053071;28;20040;-22
2023/03/25 08:45:34;;;;;;;12.77;8.63;;;19.70;61.00;;;;;;5052842;28;20481;-24
2023/03/25 08:48:01;;;;;;;15.13;9.20;;;19.70;61.00;;;;;;5052699;28;20504;-23
2023/03/25 08:50:27;;;;;;;15.57;9.68;;;19.80;61.00;;;;;;5052967;28;20167;-23
2023/03/25 08:52:56;;;;;;;12.02;8.48;;;19.70;61.00;;;;;;5052675;28;20468;-23
2023/03/25 08:55:23;;;;;;;13.57;8.45;;;19.70;61.00;;;;;;5052344;28;20100;-23
2023/03/25 08:57:49;;;;;;;12.05;8.40;;;19.80;61.10;;;;;;5052831;28;20040;-23
2023/03/25 09:00:15;;;;;;;12.75;8.73;;;19.80;61.00;;;;;;5053169;28;20029;-23
2023/03/25 09:02:42;;;;;;;14.35;9.13;;;19.80;61.10;;;;;;5052873;28;20036;-23
2023/03/25 09:05:11;;;;;;;14.50;9.10;;;19.70;61.10;;;;;;5052718;28;20042;-23
2023/03/25 09:07:38;;;;;;;13.90;9.35;;;19.70;61.10;;;;;;5052731;28;20080;-23
2023/03/25 09:10:06;;;;;;;14.73;10.13;;;19.80;61.10;;;;;;5052675;28;20060;-23
2023/03/25 09:12:32;;;;;;;14.90;10.15;;;19.80;61.10;;;;;;5052752;28;20381;-23
2023/03/25 09:14:58;;;;;;;13.77;9.77;;;19.80;61.10;;;;;;5052932;28;20460;-23
2023/03/25 09:17:24;;;;;;;17.63;10.20;;;19.80;61.10;;;;;;5052978;28;20055;-22
2023/03/25 09:19:49;;;;;;;19.98;12.13;;;19.80;61.10;;;;;;5052789;28;20091;-23
2023/03/25 09:22:15;;;;;;;19.25;11.45;;;19.80;61.10;;;;;;5052914;28;20052;-23
2023/03/25 09:24:41;;;;;;;18.65;12.52;;;19.80;61.00;;;;;;5052462;28;20037;-22
2023/03/25 09:27:07;;;;;;;20.45;11.68;;;19.80;60.90;;;;;;5052571;28;20022;-23
2023/03/25 09:29:33;;;;;;;20.83;12.00;;;19.80;60.90;;;;;;5052899;28;20025;-24
2023/03/25 09:31:59;;;;;;;18.48;11.65;;;19.80;60.90;;;;;;5052304;28;20087;-24
2023/03/25 09:34:27;;;;;;;18.48;11.82;;;19.80;60.80;;;;;;5052798;28;20025;-24
2023/03/25 09:36:54;;;;;;;19.75;11.98;;;19.90;60.80;;;;;;5056446;28;20492;-23
2023/03/25 09:39:20;;;;;;;18.95;11.85;;;19.90;60.80;;;;;;5056590;28;20151;-24
2023/03/25 09:42:22;;;;;;;19.50;12.90;;;19.80;60.80;;;;;;5056417;28;20052;-25
2023/03/25 09:45:25;;;;;;;19.75;12.35;;;19.90;60.70;;;;;;5056489;28;20099;-23
2023/03/25 09:48:12;;;;;;;18.42;12.88;;;19.90;60.70;;;;;;5056364;28;20032;-24
2023/03/25 09:50:40;;;;;;;18.92;12.80;;;19.90;60.60;;;;;;5056429;28;20029;-25
2023/03/25 09:53:28;;;;;;;18.15;12.32;;;19.90;60.60;;;;;;5056019;28;20029;-23
2023/03/25 09:55:54;;;;;;;18.88;12.45;;;19.90;60.60;;;;;;5056070;28;20052;-24
2023/03/25 09:58:35;;;;;;;18.27;11.80;;;19.90;60.70;;;;;;5055991;28;20032;-24
2023/03/25 10:01:27;;;;;;;17.73;11.48;;;19.90;60.70;;;;;;5056294;28;20035;-23
2023/03/25 10:04:11;;;;;;;18.60;12.40;;;19.90;60.70;;;;;;5048214;28;20124;-24
2023/03/25 10:07:07;;;;;;;18.55;11.40;;;19.90;60.60;;;;;;5055595;28;20035;-23
2023/03/25 10:10:12;;;;;;;20.85;12.73;;;19.90;60.60;;;;;;5035789;28;20040;-24
2023/03/25 10:12:38;;;;;;;19.15;11.73;;;19.90;60.50;;;;;;5054581;28;20029;-24
2023/03/25 10:15:23;;;;;;;21.90;13.15;;;19.90;60.20;;;;;;5055962;28;20029;-24
2023/03/25 10:18:31;;;;;;;18.50;12.27;;;19.90;60.00;;;;;;5055802;28;20054;-24
2023/03/25 10:21:02;;;;;;;19.33;10.25;;;19.90;59.90;;;;;;5033112;28;20033;-24
2023/03/25 10:23:49;;;;;;;18.10;10.30;;;19.90;60.00;;;;;;5055800;28;20079;-23
2023/03/25 10:26:24;;;;;;;18.33;10.93;;;19.90;60.00;;;;;;5055394;28;20033;-25
2023/03/25 10:29:12;;;;;;;17.00;9.73;;;19.90;60.10;;;;;;5055837;28;20095;-24
2023/03/25 10:32:00;;;;;;;17.40;9.55;;;19.90;60.10;;;;;;5055016;28;20025;-23
2023/03/25 10:34:45;;;;;;;15.45;9.23;;;19.90;60.10;;;;;;5055185;28;20021;-24
2023/03/25 10:37:16;;;;;;;18.42;10.73;;;19.90;60.20;;;;;;5055444;28;20024;-23
2023/03/25 10:39:46;;;;;;;14.40;9.68;;;19.90;60.20;;;;;;5055427;28;20033;-24
2023/03/25 10:42:24;;;;;;;12.45;8.93;;;19.90;60.20;;;;;;5055467;28;20033;-23
2023/03/25 10:44:50;;;;;;;15.63;9.90;;;19.80;60.20;;;;;;5055286;28;20033;-24
2023/03/25 10:47:20;;;;;;;14.27;10.00;;;19.90;60.30;;;;;;5054318;28;20071;-24
2023/03/25 10:49:48;;;;;;;16.33;10.57;;;19.80;60.40;;;;;;5055048;28;20032;-24
2023/03/25 10:52:15;;;;;;;16.00;9.52;;;19.80;60.40;;;;;;5055054;28;20048;-24
2023/03/25 10:54:45;;;;;;;16.25;10.77;;;19.80;60.40;;;;;;5054806;28;20053;-23
2023/03/25 10:57:22;;;;;;;20.27;12.13;;;19.90;60.40;;;;;;5055530;28;20029;-24
2023/03/25 11:00:17;;;;;;;21.73;10.38;;;19.90;60.40;;;;;;5054635;28;20385;-22
2023/03/25 11:02:45;;;;;;;19.10;10.98;;;19.80;60.30;;;;;;5055182;28;20033;-24
2023/03/25 11:05:16;;;;;;;15.55;9.85;;;19.90;60.40;;;;;;5054858;28;20056;-24
2023/03/25 11:07:54;;;;;;;17.23;10.23;;;19.90;60.40;;;;;;5054573;28;20106;-24
2023/03/25 11:10:31;;;;;;;15.48;9.77;;;19.90;60.40;;;;;;5054881;28;20052;-25
2023/03/25 11:13:02;;;;;;;17.40;10.32;;;19.90;60.40;;;;;;5054641;28;20037;-24
2023/03/25 11:15:36;;;;;;;17.48;10.77;;;19.90;60.40;;;;;;5054919;28;20033;-25
2023/03/25 11:18:02;;;;;;;14.30;9.80;;;19.90;60.40;;;;;;5054327;28;20039;-24
2023/03/25 11:20:44;;;;;;;16.75;9.90;;;19.90;60.50;;;;;;5054393;28;20111;-23
2023/03/25 11:23:33;;;;;;;16.92;10.43;;;19.90;60.50;;;;;;5053015;28;20404;-23
2023/03/25 11:26:10;;;;;;;16.75;8.95;;;19.90;60.50;;;;;;5054123;28;20112;-22
2023/03/25 11:28:43;;;;;;;18.92;10.52;;;19.80;60.50;;;;;;5054930;28;20029;-24
2023/03/25 11:31:18;;;;;;;19.25;9.68;;;19.80;60.60;;;;;;5054541;28;20021;-23
2023/03/25 11:34:05;;;;;;;21.02;9.32;;;19.80;60.60;;;;;;5054450;28;20461;-24
2023/03/25 11:36:34;;;;;;;15.32;10.25;;;19.90;60.60;;;;;;5046478;28;20037;-22
2023/03/25 11:39:03;;;;;;;19.67;9.93;;;19.90;60.70;;;;;;5054265;28;20055;-23
2023/03/25 11:41:35;;;;;;;14.82;8.80;;;19.80;60.70;;;;;;5054231;28;20048;-24
2023/03/25 11:44:03;;;;;;;15.40;8.95;;;19.80;60.70;;;;;;5053754;28;20384;-24
2023/03/25 11:46:30;;;;;;;16.17;9.77;;;19.80;60.80;;;;;;5053944;28;20025;-23
2023/03/25 11:48:56;;;;;;;13.77;9.10;;;19.80;60.80;;;;;;5054144;28;20452;-24
2023/03/25 11:51:28;;;;;;;13.85;9.25;;;19.80;60.80;;;;;;5054140;28;20037;-24
2023/03/25 11:54:06;;;;;;;13.88;9.52;;;19.80;60.80;;;;;;5053629;28;20045;-24
2023/03/25 11:56:38;;;;;;;15.02;9.32;;;19.80;60.90;;;;;;5053760;28;20477;-25
2023/03/25 11:59:21;;;;;;;15.48;9.25;;;19.70;60.90;;;;;;5053859;28;20032;-24
2023/03/25 12:01:49;;;;;;;11.73;8.20;;;19.80;61.00;;;;;;5053860;28;20025;-24
2023/03/25 12:04:21;;;;;;;13.73;9.23;;;19.70;61.00;;;;;;5053589;28;20036;-23
2023/03/25 12:07:07;;;;;;;15.60;8.45;;;19.70;61.00;;;;;;5052148;28;20127;-24
2023/03/25 12:09:34;;;;;;;11.88;8.25;;;19.70;61.00;;;;;;5053614;28;20024;-23
2023/03/25 12:12:15;;;;;;;13.35;8.90;;;19.70;61.10;;;;;;5053291;28;20078;-24
2023/03/25 12:14:51;;;;;;;13.80;9.02;;;19.70;61.10;;;;;;5053506;28;20120;-24
2023/03/25 12:18:09;;;;;;;11.68;8.43;;;19.70;61.20;;;;;;5053442;28;20025;-22
2023/03/25 12:21:10;;;;;;;14.02;8.50;;;19.70;61.20;;;;;;5044364;28;20025;-24
2023/03/25 12:23:48;;;;;;;11.13;7.88;;;19.70;61.20;;;;;;5033868;28;20029;-23
2023/03/25 12:26:22;;;;;;;12.82;8.07;;;19.70;61.30;;;;;;5053477;28;20055;-24
2023/03/25 12:29:18;;;;;;;11.05;7.75;;;19.60;61.30;;;;;;5053523;28;20021;-22
2023/03/25 12:32:30;;;;;;;13.73;8.07;;;19.70;61.30;;;;;;5053296;28;20032;-23
2023/03/25 12:35:01;;;;;;;11.73;8.38;;;19.70;61.40;;;;;;5011483;28;20081;-24
2023/03/25 12:38:12;;;;;;;11.65;7.35;;;19.60;61.40;;;;;;5011838;28;20117;-24
2023/03/25 12:41:04;;;;;;;11.45;8.07;;;19.60;61.40;;;;;;5008613;28;20064;-23
2023/03/25 12:44:02;;;;;;;9.90;7.53;;;19.70;61.50;;;;;;5011361;28;20493;-24
2023/03/25 12:46:52;;;;;;;14.15;8.57;;;19.60;61.50;;;;;;5001110;28;20616;-23
2023/03/25 12:49:21;;;;;;;11.55;7.47;;;19.60;61.50;;;;;;5011381;28;20030;-23
2023/03/25 12:52:04;;;;;;;11.23;7.72;;;19.60;61.60;;;;;;5011361;28;20117;-24
2023/03/25 12:54:33;;;;;;;11.77;7.18;;;19.60;61.60;;;;;;5011201;28;20443;-24
2023/03/25 12:57:35;;;;;;;10.93;7.43;;;19.60;61.60;;;;;;5011254;28;20036;-23
2023/03/25 13:00:20;;;;;;;13.13;7.50;;;19.70;61.70;;;;;;5011013;28;20041;-23
2023/03/25 13:03:20;;;;;;;12.05;7.90;;;19.60;61.70;;;;;;5011195;28;20030;-24
2023/03/25 13:05:49;;;;;;;11.35;7.47;;;19.60;61.70;;;;;;5010986;28;20120;-23
2023/03/25 13:08:29;;;;;;;11.93;7.32;;;19.60;61.70;;;;;;5011075;28;20050;-23